sensor_id;sensor_type;location;lat;lon;timestamp;temperature;humidity
61004;DHT22;46889;37.310;13.582;2023-07-20T00:01:54;33.40;56.20
61004;DHT22;46889;37.310;13.582;2023-07-20T00:04:20;33.40;56.20
61004;DHT22;46889;37.310;13.582;2023-07-20T00:06:46;33.40;56.30
61004;DHT22;46889;37.310;13.582;2023-07-20T00:09:12;33.40;56.50
61004;DHT22;46889;37.310;13.582;2023-07-20T00:11:38;33.30;56.60
61004;DHT22;46889;37.310;13.582;2023-07-20T00:14:04;33.30;56.50
61004;DHT22;46889;37.310;13.582;2023-07-20T00:16:30;33.20;56.50
61004;DHT22;46889;37.310;13.582;2023-07-20T00:18:56;33.20;56.70
61004;DHT22;46889;37.310;13.582;2023-07-20T00:21:22;33.10;57.00
61004;DHT22;46889;37.310;13.582;2023-07-20T00:23:47;33.00;57.10
61004;DHT22;46889;37.310;13.582;2023-07-20T00:26:13;33.10;57.10
61004;DHT22;46889;37.310;13.582;2023-07-20T00:28:39;33.10;57.00
61004;DHT22;46889;37.310;13.582;2023-07-20T00:31:05;33.10;56.90
61004;DHT22;46889;37.310;13.582;2023-07-20T00:33:31;33.10;56.70
61004;DHT22;46889;37.310;13.582;2023-07-20T00:35:56;33.10;56.60
61004;DHT22;46889;37.310;13.582;2023-07-20T00:38:22;33.10;56.70
61004;DHT22;46889;37.310;13.582;2023-07-20T00:40:48;33.10;56.60
61004;DHT22;46889;37.310;13.582;2023-07-20T00:43:15;33.10;56.80
61004;DHT22;46889;37.310;13.582;2023-07-20T00:45:40;33.00;56.80
61004;DHT22;46889;37.310;13.582;2023-07-20T00:48:06;33.00;56.90
61004;DHT22;46889;37.310;13.582;2023-07-20T00:50:33;33.00;57.00
61004;DHT22;46889;37.310;13.582;2023-07-20T00:52:59;33.10;57.10
61004;DHT22;46889;37.310;13.582;2023-07-20T00:55:25;33.10;57.20
61004;DHT22;46889;37.310;13.582;2023-07-20T00:57:52;33.10;57.20
61004;DHT22;46889;37.310;13.582;2023-07-20T01:00:18;33.20;57.20
61004;DHT22;46889;37.310;13.582;2023-07-20T01:02:45;33.20;57.20
61004;DHT22;46889;37.310;13.582;2023-07-20T01:05:12;33.10;57.20
61004;DHT22;46889;37.310;13.582;2023-07-20T01:07:41;33.10;57.20
61004;DHT22;46889;37.310;13.582;2023-07-20T01:10:12;33.10;57.40
61004;DHT22;46889;37.310;13.582;2023-07-20T01:12:41;33.10;57.40
61004;DHT22;46889;37.310;13.582;2023-07-20T01:15:08;33.00;57.40
61004;DHT22;46889;37.310;13.582;2023-07-20T01:17:34;32.90;57.50
61004;DHT22;46889;37.310;13.582;2023-07-20T01:20:00;32.90;57.50
61004;DHT22;46889;37.310;13.582;2023-07-20T01:22:38;32.80;57.40
61004;DHT22;46889;37.310;13.582;2023-07-20T01:25:21;32.80;57.60
61004;DHT22;46889;37.310;13.582;2023-07-20T01:27:55;32.80;57.40
61004;DHT22;46889;37.310;13.582;2023-07-20T01:33:04;32.90;57.00
61004;DHT22;46889;37.310;13.582;2023-07-20T01:35:31;33.00;56.90
61004;DHT22;46889;37.310;13.582;2023-07-20T01:37:58;32.90;56.80
61004;DHT22;46889;37.310;13.582;2023-07-20T01:40:25;33.00;56.50
61004;DHT22;46889;37.310;13.582;2023-07-20T01:42:51;33.00;56.70
61004;DHT22;46889;37.310;13.582;2023-07-20T01:45:17;32.90;56.60
61004;DHT22;46889;37.310;13.582;2023-07-20T01:47:43;32.90;56.70
61004;DHT22;46889;37.310;13.582;2023-07-20T01:50:09;32.90;56.40
61004;DHT22;46889;37.310;13.582;2023-07-20T01:52:35;33.00;56.40
61004;DHT22;46889;37.310;13.582;2023-07-20T01:55:00;33.00;56.20
61004;DHT22;46889;37.310;13.582;2023-07-20T01:57:26;33.10;56.10
61004;DHT22;46889;37.310;13.582;2023-07-20T01:59:52;33.10;56.10
61004;DHT22;46889;37.310;13.582;2023-07-20T02:02:18;33.20;55.90
61004;DHT22;46889;37.310;13.582;2023-07-20T02:04:44;33.10;56.20
61004;DHT22;46889;37.310;13.582;2023-07-20T02:07:10;32.90;56.50
61004;DHT22;46889;37.310;13.582;2023-07-20T02:09:35;32.80;56.50
61004;DHT22;46889;37.310;13.582;2023-07-20T02:12:02;32.80;56.70
61004;DHT22;46889;37.310;13.582;2023-07-20T02:14:28;32.70;56.90
61004;DHT22;46889;37.310;13.582;2023-07-20T02:16:54;32.60;57.00
61004;DHT22;46889;37.310;13.582;2023-07-20T02:19:24;32.50;57.30
61004;DHT22;46889;37.310;13.582;2023-07-20T02:21:50;32.40;57.40
61004;DHT22;46889;37.310;13.582;2023-07-20T02:24:16;32.30;57.50
61004;DHT22;46889;37.310;13.582;2023-07-20T02:26:42;32.20;57.60
61004;DHT22;46889;37.310;13.582;2023-07-20T02:29:08;32.20;57.80
61004;DHT22;46889;37.310;13.582;2023-07-20T02:31:33;32.20;57.80
61004;DHT22;46889;37.310;13.582;2023-07-20T02:33:59;32.20;57.90
61004;DHT22;46889;37.310;13.582;2023-07-20T02:36:25;32.20;57.80
61004;DHT22;46889;37.310;13.582;2023-07-20T02:38:51;32.20;57.60
61004;DHT22;46889;37.310;13.582;2023-07-20T02:41:17;32.20;57.50
61004;DHT22;46889;37.310;13.582;2023-07-20T02:43:43;32.40;57.10
61004;DHT22;46889;37.310;13.582;2023-07-20T02:46:09;32.50;57.00
61004;DHT22;46889;37.310;13.582;2023-07-20T02:48:34;32.50;56.90
61004;DHT22;46889;37.310;13.582;2023-07-20T02:51:00;32.40;57.00
61004;DHT22;46889;37.310;13.582;2023-07-20T02:53:26;32.40;57.10
61004;DHT22;46889;37.310;13.582;2023-07-20T02:55:52;32.30;57.20
61004;DHT22;46889;37.310;13.582;2023-07-20T02:58:17;32.20;57.30
61004;DHT22;46889;37.310;13.582;2023-07-20T03:00:43;32.20;57.50
61004;DHT22;46889;37.310;13.582;2023-07-20T03:03:09;32.20;57.50
61004;DHT22;46889;37.310;13.582;2023-07-20T03:05:35;32.10;57.60
61004;DHT22;46889;37.310;13.582;2023-07-20T03:08:03;32.10;57.60
61004;DHT22;46889;37.310;13.582;2023-07-20T03:10:31;32.00;57.50
61004;DHT22;46889;37.310;13.582;2023-07-20T03:12:58;32.00;57.70
61004;DHT22;46889;37.310;13.582;2023-07-20T03:15:24;31.90;57.60
61004;DHT22;46889;37.310;13.582;2023-07-20T03:17:50;31.80;57.90
61004;DHT22;46889;37.310;13.582;2023-07-20T03:20:17;31.80;58.00
61004;DHT22;46889;37.310;13.582;2023-07-20T03:22:42;31.70;58.00
61004;DHT22;46889;37.310;13.582;2023-07-20T03:25:08;31.60;58.00
61004;DHT22;46889;37.310;13.582;2023-07-20T03:27:34;31.60;58.10
61004;DHT22;46889;37.310;13.582;2023-07-20T03:30:00;31.70;58.10
61004;DHT22;46889;37.310;13.582;2023-07-20T03:32:26;31.70;58.00
61004;DHT22;46889;37.310;13.582;2023-07-20T03:34:52;31.80;57.90
61004;DHT22;46889;37.310;13.582;2023-07-20T03:37:17;31.80;57.80
61004;DHT22;46889;37.310;13.582;2023-07-20T03:39:43;31.90;57.60
61004;DHT22;46889;37.310;13.582;2023-07-20T03:42:09;32.00;57.40
61004;DHT22;46889;37.310;13.582;2023-07-20T03:44:35;32.00;57.40
61004;DHT22;46889;37.310;13.582;2023-07-20T03:47:00;32.00;57.40
61004;DHT22;46889;37.310;13.582;2023-07-20T03:49:27;32.10;57.40
61004;DHT22;46889;37.310;13.582;2023-07-20T03:51:52;32.00;57.60
61004;DHT22;46889;37.310;13.582;2023-07-20T03:54:18;31.80;57.80
61004;DHT22;46889;37.310;13.582;2023-07-20T03:56:44;31.80;58.00
61004;DHT22;46889;37.310;13.582;2023-07-20T03:59:10;31.80;57.60
61004;DHT22;46889;37.310;13.582;2023-07-20T04:01:36;31.90;57.50
61004;DHT22;46889;37.310;13.582;2023-07-20T04:04:08;31.90;57.50
61004;DHT22;46889;37.310;13.582;2023-07-20T04:06:34;32.00;57.30
61004;DHT22;46889;37.310;13.582;2023-07-20T04:09:00;32.00;57.10
61004;DHT22;46889;37.310;13.582;2023-07-20T04:11:25;32.10;57.20
61004;DHT22;46889;37.310;13.582;2023-07-20T04:13:51;32.00;57.40
61004;DHT22;46889;37.310;13.582;2023-07-20T04:16:17;31.80;57.50
61004;DHT22;46889;37.310;13.582;2023-07-20T04:18:45;31.80;57.80
61004;DHT22;46889;37.310;13.582;2023-07-20T04:21:11;31.80;57.90
61004;DHT22;46889;37.310;13.582;2023-07-20T04:23:36;31.70;57.80
61004;DHT22;46889;37.310;13.582;2023-07-20T04:26:02;31.60;57.80
61004;DHT22;46889;37.310;13.582;2023-07-20T04:28:28;31.60;57.80
61004;DHT22;46889;37.310;13.582;2023-07-20T04:30:54;31.60;57.60
61004;DHT22;46889;37.310;13.582;2023-07-20T04:33:20;31.60;57.60
61004;DHT22;46889;37.310;13.582;2023-07-20T04:35:47;31.60;57.60
61004;DHT22;46889;37.310;13.582;2023-07-20T04:38:13;31.60;57.40
61004;DHT22;46889;37.310;13.582;2023-07-20T04:40:41;31.70;57.40
61004;DHT22;46889;37.310;13.582;2023-07-20T04:43:07;31.70;57.30
61004;DHT22;46889;37.310;13.582;2023-07-20T04:45:33;31.80;56.20
61004;DHT22;46889;37.310;13.582;2023-07-20T04:47:59;32.00;56.80
61004;DHT22;46889;37.310;13.582;2023-07-20T04:50:24;32.00;56.70
61004;DHT22;46889;37.310;13.582;2023-07-20T04:52:50;32.00;56.70
61004;DHT22;46889;37.310;13.582;2023-07-20T04:55:16;32.00;56.70
61004;DHT22;46889;37.310;13.582;2023-07-20T04:57:42;32.00;56.50
61004;DHT22;46889;37.310;13.582;2023-07-20T05:00:08;32.00;56.20
61004;DHT22;46889;37.310;13.582;2023-07-20T05:02:36;32.00;56.50
61004;DHT22;46889;37.310;13.582;2023-07-20T05:05:03;31.90;56.60
61004;DHT22;46889;37.310;13.582;2023-07-20T05:07:31;32.00;56.40
61004;DHT22;46889;37.310;13.582;2023-07-20T05:09:57;32.10;56.10
61004;DHT22;46889;37.310;13.582;2023-07-20T05:12:23;32.30;56.10
61004;DHT22;46889;37.310;13.582;2023-07-20T05:14:49;32.90;55.50
61004;DHT22;46889;37.310;13.582;2023-07-20T05:17:14;33.60;54.80
61004;DHT22;46889;37.310;13.582;2023-07-20T05:19:40;34.30;54.40
61004;DHT22;46889;37.310;13.582;2023-07-20T05:22:06;34.90;53.60
61004;DHT22;46889;37.310;13.582;2023-07-20T05:24:32;35.30;53.00
61004;DHT22;46889;37.310;13.582;2023-07-20T05:26:58;35.70;52.60
61004;DHT22;46889;37.310;13.582;2023-07-20T05:29:24;35.90;52.20
61004;DHT22;46889;37.310;13.582;2023-07-20T05:31:50;35.50;52.30
61004;DHT22;46889;37.310;13.582;2023-07-20T05:34:16;35.70;52.50
61004;DHT22;46889;37.310;13.582;2023-07-20T05:36:42;36.00;52.10
61004;DHT22;46889;37.310;13.582;2023-07-20T05:39:08;36.70;51.50
61004;DHT22;46889;37.310;13.582;2023-07-20T05:41:34;37.20;50.60
61004;DHT22;46889;37.310;13.582;2023-07-20T05:44:00;37.00;50.40
61004;DHT22;46889;37.310;13.582;2023-07-20T05:46:25;36.70;50.70
61004;DHT22;46889;37.310;13.582;2023-07-20T05:48:51;36.80;50.90
61004;DHT22;46889;37.310;13.582;2023-07-20T05:51:17;36.60;50.70
61004;DHT22;46889;37.310;13.582;2023-07-20T05:53:43;37.60;50.50
61004;DHT22;46889;37.310;13.582;2023-07-20T05:56:09;38.30;49.50
61004;DHT22;46889;37.310;13.582;2023-07-20T05:58:37;38.80;49.00
61004;DHT22;46889;37.310;13.582;2023-07-20T06:01:03;39.20;48.70
61004;DHT22;46889;37.310;13.582;2023-07-20T06:03:31;40.00;48.30
61004;DHT22;46889;37.310;13.582;2023-07-20T06:06:00;40.50;47.80
61004;DHT22;46889;37.310;13.582;2023-07-20T06:08:26;39.60;47.80
61004;DHT22;46889;37.310;13.582;2023-07-20T06:10:52;39.10;49.00
61004;DHT22;46889;37.310;13.582;2023-07-20T06:13:18;39.50;48.50
61004;DHT22;46889;37.310;13.582;2023-07-20T06:15:44;39.90;48.50
61004;DHT22;46889;37.310;13.582;2023-07-20T06:18:09;39.30;48.00
61004;DHT22;46889;37.310;13.582;2023-07-20T06:20:35;39.10;49.00
61004;DHT22;46889;37.310;13.582;2023-07-20T06:23:01;39.30;47.80
61004;DHT22;46889;37.310;13.582;2023-07-20T06:25:27;39.00;48.30
61004;DHT22;46889;37.310;13.582;2023-07-20T06:27:54;39.50;48.00
61004;DHT22;46889;37.310;13.582;2023-07-20T06:30:20;40.20;47.60
61004;DHT22;46889;37.310;13.582;2023-07-20T06:32:46;40.30;47.10
61004;DHT22;46889;37.310;13.582;2023-07-20T06:35:13;40.70;46.40
61004;DHT22;46889;37.310;13.582;2023-07-20T06:37:39;40.50;46.70
61004;DHT22;46889;37.310;13.582;2023-07-20T06:40:05;40.40;46.80
61004;DHT22;46889;37.310;13.582;2023-07-20T06:42:31;40.80;46.30
61004;DHT22;46889;37.310;13.582;2023-07-20T06:44:57;41.20;45.80
61004;DHT22;46889;37.310;13.582;2023-07-20T06:47:23;41.00;44.90
61004;DHT22;46889;37.310;13.582;2023-07-20T06:49:48;40.40;45.00
61004;DHT22;46889;37.310;13.582;2023-07-20T06:52:17;40.70;44.90
61004;DHT22;46889;37.310;13.582;2023-07-20T06:54:43;41.60;44.40
61004;DHT22;46889;37.310;13.582;2023-07-20T06:57:12;42.10;44.40
61004;DHT22;46889;37.310;13.582;2023-07-20T06:59:41;42.80;43.60
61004;DHT22;46889;37.310;13.582;2023-07-20T07:02:07;43.40;43.10
61004;DHT22;46889;37.310;13.582;2023-07-20T07:04:33;44.30;42.40
61004;DHT22;46889;37.310;13.582;2023-07-20T07:06:59;44.80;41.80
61004;DHT22;46889;37.310;13.582;2023-07-20T07:09:25;44.40;41.60
61004;DHT22;46889;37.310;13.582;2023-07-20T07:11:51;44.70;41.60
61004;DHT22;46889;37.310;13.582;2023-07-20T07:14:19;44.60;41.80
61004;DHT22;46889;37.310;13.582;2023-07-20T07:16:45;44.80;41.60
61004;DHT22;46889;37.310;13.582;2023-07-20T07:19:11;45.20;40.40
61004;DHT22;46889;37.310;13.582;2023-07-20T07:21:37;45.40;40.70
61004;DHT22;46889;37.310;13.582;2023-07-20T07:24:03;46.90;40.60
61004;DHT22;46889;37.310;13.582;2023-07-20T07:26:29;47.50;41.40
61004;DHT22;46889;37.310;13.582;2023-07-20T07:28:55;47.30;42.90
61004;DHT22;46889;37.310;13.582;2023-07-20T07:31:21;47.30;43.60
61004;DHT22;46889;37.310;13.582;2023-07-20T07:33:47;46.50;43.60
61004;DHT22;46889;37.310;13.582;2023-07-20T07:36:13;46.40;43.70
61004;DHT22;46889;37.310;13.582;2023-07-20T07:38:38;45.90;43.00
61004;DHT22;46889;37.310;13.582;2023-07-20T07:41:04;45.50;44.20
61004;DHT22;46889;37.310;13.582;2023-07-20T07:43:30;45.30;48.00
61004;DHT22;46889;37.310;13.582;2023-07-20T07:45:56;44.40;52.30
61004;DHT22;46889;37.310;13.582;2023-07-20T07:48:22;44.00;52.90
61004;DHT22;46889;37.310;13.582;2023-07-20T07:50:50;43.30;54.20
61004;DHT22;46889;37.310;13.582;2023-07-20T07:53:16;43.00;54.30
61004;DHT22;46889;37.310;13.582;2023-07-20T07:55:42;43.00;54.30
61004;DHT22;46889;37.310;13.582;2023-07-20T07:58:08;43.40;53.30
61004;DHT22;46889;37.310;13.582;2023-07-20T08:00:37;43.60;52.90
61004;DHT22;46889;37.310;13.582;2023-07-20T08:03:02;43.80;53.60
61004;DHT22;46889;37.310;13.582;2023-07-20T08:05:28;43.70;54.60
61004;DHT22;46889;37.310;13.582;2023-07-20T08:07:54;43.50;55.50
61004;DHT22;46889;37.310;13.582;2023-07-20T08:10:20;43.10;55.80
61004;DHT22;46889;37.310;13.582;2023-07-20T08:12:46;42.90;56.00
61004;DHT22;46889;37.310;13.582;2023-07-20T08:15:12;42.50;56.20
61004;DHT22;46889;37.310;13.582;2023-07-20T08:17:40;42.90;56.70
61004;DHT22;46889;37.310;13.582;2023-07-20T08:20:06;43.30;57.10
61004;DHT22;46889;37.310;13.582;2023-07-20T08:22:35;42.50;56.90
61004;DHT22;46889;37.310;13.582;2023-07-20T08:25:01;42.70;56.70
61004;DHT22;46889;37.310;13.582;2023-07-20T08:27:26;42.70;56.00
61004;DHT22;46889;37.310;13.582;2023-07-20T08:29:52;42.90;55.40
61004;DHT22;46889;37.310;13.582;2023-07-20T08:32:18;42.90;55.00
61004;DHT22;46889;37.310;13.582;2023-07-20T08:34:44;42.90;55.10
61004;DHT22;46889;37.310;13.582;2023-07-20T08:37:11;42.80;54.50
61004;DHT22;46889;37.310;13.582;2023-07-20T08:39:36;42.70;54.70
61004;DHT22;46889;37.310;13.582;2023-07-20T08:42:02;42.60;54.30
61004;DHT22;46889;37.310;13.582;2023-07-20T08:44:32;42.20;53.20
61004;DHT22;46889;37.310;13.582;2023-07-20T08:46:58;42.30;52.90
61004;DHT22;46889;37.310;13.582;2023-07-20T08:49:25;41.80;53.00
61004;DHT22;46889;37.310;13.582;2023-07-20T08:51:51;41.70;53.00
61004;DHT22;46889;37.310;13.582;2023-07-20T08:54:18;41.70;53.10
61004;DHT22;46889;37.310;13.582;2023-07-20T08:56:44;42.10;52.50
61004;DHT22;46889;37.310;13.582;2023-07-20T08:59:11;42.10;50.90
61004;DHT22;46889;37.310;13.582;2023-07-20T09:01:37;42.10;50.10
61004;DHT22;46889;37.310;13.582;2023-07-20T09:04:04;41.90;49.20
61004;DHT22;46889;37.310;13.582;2023-07-20T09:06:30;41.90;48.20
61004;DHT22;46889;37.310;13.582;2023-07-20T09:08:56;42.30;46.30
61004;DHT22;46889;37.310;13.582;2023-07-20T09:11:22;42.20;44.20
61004;DHT22;46889;37.310;13.582;2023-07-20T09:14:01;42.40;44.90
61004;DHT22;46889;37.310;13.582;2023-07-20T09:16:28;42.10;44.60
61004;DHT22;46889;37.310;13.582;2023-07-20T09:18:54;42.40;44.40
61004;DHT22;46889;37.310;13.582;2023-07-20T09:21:23;42.50;44.40
61004;DHT22;46889;37.310;13.582;2023-07-20T09:23:49;42.60;45.00
61004;DHT22;46889;37.310;13.582;2023-07-20T09:26:18;42.60;45.50
61004;DHT22;46889;37.310;13.582;2023-07-20T09:28:48;42.30;45.80
61004;DHT22;46889;37.310;13.582;2023-07-20T09:31:17;42.40;44.10
61004;DHT22;46889;37.310;13.582;2023-07-20T09:33:44;42.10;44.40
61004;DHT22;46889;37.310;13.582;2023-07-20T09:36:10;42.40;44.40
61004;DHT22;46889;37.310;13.582;2023-07-20T09:38:37;42.10;43.10
61004;DHT22;46889;37.310;13.582;2023-07-20T09:41:05;42.10;42.20
61004;DHT22;46889;37.310;13.582;2023-07-20T09:43:31;41.90;41.60
61004;DHT22;46889;37.310;13.582;2023-07-20T09:45:58;41.80;42.20
61004;DHT22;46889;37.310;13.582;2023-07-20T09:48:24;42.00;43.20
61004;DHT22;46889;37.310;13.582;2023-07-20T09:50:50;42.20;43.30
61004;DHT22;46889;37.310;13.582;2023-07-20T09:53:17;42.10;44.10
61004;DHT22;46889;37.310;13.582;2023-07-20T09:55:54;41.70;43.50
61004;DHT22;46889;37.310;13.582;2023-07-20T09:58:27;41.60;44.60
61004;DHT22;46889;37.310;13.582;2023-07-20T10:00:56;41.70;45.40
61004;DHT22;46889;37.310;13.582;2023-07-20T10:03:23;41.80;45.40
61004;DHT22;46889;37.310;13.582;2023-07-20T10:05:58;41.70;45.30
61004;DHT22;46889;37.310;13.582;2023-07-20T10:08:25;41.60;47.00
61004;DHT22;46889;37.310;13.582;2023-07-20T10:10:51;41.50;48.10
61004;DHT22;46889;37.310;13.582;2023-07-20T10:13:18;41.60;48.80
61004;DHT22;46889;37.310;13.582;2023-07-20T10:15:54;41.60;49.10
61004;DHT22;46889;37.310;13.582;2023-07-20T10:18:28;41.30;49.70
61004;DHT22;46889;37.310;13.582;2023-07-20T10:20:54;41.50;50.80
61004;DHT22;46889;37.310;13.582;2023-07-20T10:23:21;41.70;51.90
61004;DHT22;46889;37.310;13.582;2023-07-20T10:25:47;41.50;48.70
61004;DHT22;46889;37.310;13.582;2023-07-20T10:28:13;41.10;48.20
61004;DHT22;46889;37.310;13.582;2023-07-20T10:30:39;41.20;48.60
61004;DHT22;46889;37.310;13.582;2023-07-20T10:33:06;41.30;46.00
61004;DHT22;46889;37.310;13.582;2023-07-20T10:35:50;41.20;47.00
61004;DHT22;46889;37.310;13.582;2023-07-20T10:38:16;41.20;48.70
61004;DHT22;46889;37.310;13.582;2023-07-20T10:40:42;41.10;47.40
61004;DHT22;46889;37.310;13.582;2023-07-20T10:43:09;40.70;48.20
61004;DHT22;46889;37.310;13.582;2023-07-20T10:45:36;40.80;48.40
61004;DHT22;46889;37.310;13.582;2023-07-20T10:48:06;40.50;47.60
61004;DHT22;46889;37.310;13.582;2023-07-20T10:50:32;40.50;45.80
61004;DHT22;46889;37.310;13.582;2023-07-20T10:53:14;40.60;48.10
61004;DHT22;46889;37.310;13.582;2023-07-20T10:55:41;40.50;48.40
61004;DHT22;46889;37.310;13.582;2023-07-20T10:58:08;40.50;45.90
61004;DHT22;46889;37.310;13.582;2023-07-20T11:00:35;40.50;48.20
61004;DHT22;46889;37.310;13.582;2023-07-20T11:03:01;40.60;49.10
61004;DHT22;46889;37.310;13.582;2023-07-20T11:05:37;41.00;49.30
61004;DHT22;46889;37.310;13.582;2023-07-20T11:08:03;41.20;47.60
61004;DHT22;46889;37.310;13.582;2023-07-20T11:10:30;41.50;42.50
61004;DHT22;46889;37.310;13.582;2023-07-20T11:15:46;41.80;39.60
61004;DHT22;46889;37.310;13.582;2023-07-20T11:18:12;42.10;38.10
61004;DHT22;46889;37.310;13.582;2023-07-20T11:20:39;42.10;38.00
61004;DHT22;46889;37.310;13.582;2023-07-20T11:23:04;42.20;37.50
61004;DHT22;46889;37.310;13.582;2023-07-20T11:25:39;42.20;36.60
61004;DHT22;46889;37.310;13.582;2023-07-20T11:28:09;42.30;36.90
61004;DHT22;46889;37.310;13.582;2023-07-20T11:30:36;42.30;36.70
61004;DHT22;46889;37.310;13.582;2023-07-20T11:33:03;42.40;35.40
61004;DHT22;46889;37.310;13.582;2023-07-20T11:35:29;42.60;35.10
61004;DHT22;46889;37.310;13.582;2023-07-20T11:37:55;42.70;35.40
61004;DHT22;46889;37.310;13.582;2023-07-20T11:40:22;42.70;35.20
61004;DHT22;46889;37.310;13.582;2023-07-20T11:42:48;42.80;35.50
61004;DHT22;46889;37.310;13.582;2023-07-20T11:45:19;43.00;35.60
61004;DHT22;46889;37.310;13.582;2023-07-20T11:47:44;43.10;36.10
61004;DHT22;46889;37.310;13.582;2023-07-20T11:50:10;43.00;36.20
61004;DHT22;46889;37.310;13.582;2023-07-20T11:52:39;42.70;36.40
61004;DHT22;46889;37.310;13.582;2023-07-20T11:55:06;42.70;36.40
61004;DHT22;46889;37.310;13.582;2023-07-20T11:57:32;42.90;36.80
61004;DHT22;46889;37.310;13.582;2023-07-20T12:00:00;42.90;36.00
61004;DHT22;46889;37.310;13.582;2023-07-20T12:02:27;43.00;35.80
61004;DHT22;46889;37.310;13.582;2023-07-20T12:04:56;43.20;35.50
61004;DHT22;46889;37.310;13.582;2023-07-20T12:07:22;43.40;35.20
61004;DHT22;46889;37.310;13.582;2023-07-20T12:10:06;43.40;35.10
61004;DHT22;46889;37.310;13.582;2023-07-20T12:12:33;43.30;35.10
61004;DHT22;46889;37.310;13.582;2023-07-20T12:15:21;43.50;36.50
61004;DHT22;46889;37.310;13.582;2023-07-20T12:17:51;43.30;36.80
61004;DHT22;46889;37.310;13.582;2023-07-20T12:20:32;43.30;36.60
61004;DHT22;46889;37.310;13.582;2023-07-20T12:23:04;43.10;37.50
61004;DHT22;46889;37.310;13.582;2023-07-20T12:25:44;43.20;37.20
61004;DHT22;46889;37.310;13.582;2023-07-20T12:28:11;43.30;37.10
61004;DHT22;46889;37.310;13.582;2023-07-20T12:30:38;43.10;37.10
61004;DHT22;46889;37.310;13.582;2023-07-20T12:33:04;43.30;38.10
61004;DHT22;46889;37.310;13.582;2023-07-20T12:35:30;43.00;38.60
61004;DHT22;46889;37.310;13.582;2023-07-20T12:37:57;43.10;38.90
61004;DHT22;46889;37.310;13.582;2023-07-20T12:40:23;43.20;39.60
61004;DHT22;46889;37.310;13.582;2023-07-20T12:42:49;43.30;39.20
61004;DHT22;46889;37.310;13.582;2023-07-20T12:45:15;43.30;39.20
61004;DHT22;46889;37.310;13.582;2023-07-20T12:47:41;43.40;39.20
61004;DHT22;46889;37.310;13.582;2023-07-20T12:50:11;43.50;38.70
61004;DHT22;46889;37.310;13.582;2023-07-20T12:52:38;43.50;39.00
61004;DHT22;46889;37.310;13.582;2023-07-20T12:55:04;43.60;39.00
61004;DHT22;46889;37.310;13.582;2023-07-20T12:57:31;43.60;39.20
61004;DHT22;46889;37.310;13.582;2023-07-20T12:59:56;43.50;38.80
61004;DHT22;46889;37.310;13.582;2023-07-20T13:02:23;43.40;38.40
61004;DHT22;46889;37.310;13.582;2023-07-20T13:04:48;43.40;38.70
61004;DHT22;46889;37.310;13.582;2023-07-20T13:07:15;43.40;38.90
61004;DHT22;46889;37.310;13.582;2023-07-20T13:09:40;43.40;39.30
61004;DHT22;46889;37.310;13.582;2023-07-20T13:12:06;43.30;40.50
61004;DHT22;46889;37.310;13.582;2023-07-20T13:14:33;43.10;41.30
61004;DHT22;46889;37.310;13.582;2023-07-20T13:16:58;43.10;41.80
61004;DHT22;46889;37.310;13.582;2023-07-20T13:19:24;43.20;42.10
61004;DHT22;46889;37.310;13.582;2023-07-20T13:21:50;43.20;42.10
61004;DHT22;46889;37.310;13.582;2023-07-20T13:24:16;43.20;42.40
61004;DHT22;46889;37.310;13.582;2023-07-20T13:26:42;42.90;43.00
61004;DHT22;46889;37.310;13.582;2023-07-20T13:29:08;42.90;42.60
61004;DHT22;46889;37.310;13.582;2023-07-20T13:31:34;42.50;42.40
61004;DHT22;46889;37.310;13.582;2023-07-20T13:34:00;42.70;41.10
61004;DHT22;46889;37.310;13.582;2023-07-20T13:36:26;42.70;40.90
61004;DHT22;46889;37.310;13.582;2023-07-20T13:38:51;42.80;41.80
61004;DHT22;46889;37.310;13.582;2023-07-20T13:41:18;42.90;41.70
61004;DHT22;46889;37.310;13.582;2023-07-20T13:43:44;42.90;42.00
61004;DHT22;46889;37.310;13.582;2023-07-20T13:46:10;42.90;43.00
61004;DHT22;46889;37.310;13.582;2023-07-20T13:48:35;43.00;43.00
61004;DHT22;46889;37.310;13.582;2023-07-20T13:51:01;42.90;43.40
61004;DHT22;46889;37.310;13.582;2023-07-20T13:53:27;42.70;42.60
61004;DHT22;46889;37.310;13.582;2023-07-20T13:55:53;42.60;41.60
61004;DHT22;46889;37.310;13.582;2023-07-20T13:58:19;42.50;41.40
61004;DHT22;46889;37.310;13.582;2023-07-20T14:00:45;42.40;41.70
61004;DHT22;46889;37.310;13.582;2023-07-20T14:03:11;42.30;41.40
61004;DHT22;46889;37.310;13.582;2023-07-20T14:05:36;42.10;40.80
61004;DHT22;46889;37.310;13.582;2023-07-20T14:08:02;42.10;40.90
61004;DHT22;46889;37.310;13.582;2023-07-20T14:10:28;42.10;39.60
61004;DHT22;46889;37.310;13.582;2023-07-20T14:12:54;42.10;39.10
61004;DHT22;46889;37.310;13.582;2023-07-20T14:15:20;42.30;39.20
61004;DHT22;46889;37.310;13.582;2023-07-20T14:17:45;42.50;38.60
61004;DHT22;46889;37.310;13.582;2023-07-20T14:20:11;42.50;38.60
61004;DHT22;46889;37.310;13.582;2023-07-20T14:22:37;42.20;38.90
61004;DHT22;46889;37.310;13.582;2023-07-20T14:25:03;42.10;38.00
61004;DHT22;46889;37.310;13.582;2023-07-20T14:27:30;42.10;37.60
61004;DHT22;46889;37.310;13.582;2023-07-20T14:29:55;42.10;37.60
61004;DHT22;46889;37.310;13.582;2023-07-20T14:32:21;42.20;37.60
61004;DHT22;46889;37.310;13.582;2023-07-20T14:34:47;42.20;37.60
61004;DHT22;46889;37.310;13.582;2023-07-20T14:37:13;42.10;37.70
61004;DHT22;46889;37.310;13.582;2023-07-20T14:39:39;42.00;38.70
61004;DHT22;46889;37.310;13.582;2023-07-20T14:42:05;41.90;38.50
61004;DHT22;46889;37.310;13.582;2023-07-20T14:44:32;41.80;39.00
61004;DHT22;46889;37.310;13.582;2023-07-20T14:46:58;41.60;39.10
61004;DHT22;46889;37.310;13.582;2023-07-20T14:49:27;41.60;39.30
61004;DHT22;46889;37.310;13.582;2023-07-20T14:51:53;41.60;40.00
61004;DHT22;46889;37.310;13.582;2023-07-20T14:54:19;41.60;39.60
61004;DHT22;46889;37.310;13.582;2023-07-20T14:56:51;41.60;39.40
61004;DHT22;46889;37.310;13.582;2023-07-20T14:59:21;41.70;39.90
61004;DHT22;46889;37.310;13.582;2023-07-20T15:01:47;41.80;39.60
61004;DHT22;46889;37.310;13.582;2023-07-20T15:04:13;41.70;39.90
61004;DHT22;46889;37.310;13.582;2023-07-20T15:06:40;41.70;40.20
61004;DHT22;46889;37.310;13.582;2023-07-20T15:09:05;41.70;40.70
61004;DHT22;46889;37.310;13.582;2023-07-20T15:11:31;41.30;41.30
61004;DHT22;46889;37.310;13.582;2023-07-20T15:13:57;41.40;42.00
61004;DHT22;46889;37.310;13.582;2023-07-20T15:16:23;41.50;42.70
61004;DHT22;46889;37.310;13.582;2023-07-20T15:18:49;41.30;43.60